Time;durP1;ratioP1;P1;durP2;ratioP2;P2;SDS_P1;SDS_P2;PMS_P1;PMS_P2;Temp;Humidity;BMP_temperature;BMP_pressure;BME280_temperature;BME280_humidity;BME280_pressure;Samples;Min_cycle;Max_cycle;Signal;HPM_P1;HPM_P2
2021/12/31 00:02:12;366140.00;1.22;631.60;0.00;0.00;0.62;;;;;17.20;1.00;;;;;;2276595;61;1316;-85
2021/12/31 00:04:38;178154.00;0.59;308.31;0.00;0.00;0.62;;;;;17.20;1.00;;;;;;2276770;61;1168;-86
2021/12/31 00:07:05;237319.00;0.79;410.14;0.00;0.00;0.62;;;;;17.10;1.00;;;;;;2276811;61;1230;-86
2021/12/31 00:09:32;295346.00;0.98;509.92;0.00;0.00;0.62;;;;;17.10;1.00;;;;;;2276667;61;1164;-85
2021/12/31 00:12:02;128360.00;0.43;222.50;0.00;0.00;0.62;;;;;17.00;1.00;;;;;;2275369;61;1361;-84
2021/12/31 00:14:29;143552.00;0.48;248.69;0.00;0.00;0.62;;;;;17.00;1.00;;;;;;2274201;61;1994;-84
2021/12/31 00:16:56;214154.00;0.71;370.28;0.00;0.00;0.62;;;;;17.10;1.00;;;;;;2273918;61;1172;-84
2021/12/31 00:19:26;302758.00;1.01;522.66;0.00;0.00;0.62;;;;;16.90;1.00;;;;;;2273778;61;1145;-83
2021/12/31 00:21:53;138403.00;0.46;239.82;0.00;0.00;0.62;;;;;17.00;1.00;;;;;;2273460;61;1341;-84
2021/12/31 00:24:21;209332.00;0.70;361.99;0.00;0.00;0.62;;;;;17.00;1.00;;;;;;2273771;61;1076;-84
2021/12/31 00:26:48;155090.00;0.52;268.58;0.00;0.00;0.62;;;;;17.10;1.00;;;;;;2273850;61;1059;-83
2021/12/31 00:29:17;153009.00;0.51;264.99;0.00;0.00;0.62;;;;;17.00;1.00;;;;;;2275130;61;1134;-84
2021/12/31 00:31:44;151112.00;0.50;261.72;0.00;0.00;0.62;;;;;17.10;1.00;;;;;;2275559;61;1371;-82
2021/12/31 00:34:11;190484.00;0.63;329.54;0.00;0.00;0.62;;;;;16.90;1.00;;;;;;2275629;61;1923;-83
2021/12/31 00:36:39;123993.00;0.41;214.97;0.00;0.00;0.62;;;;;17.00;1.00;;;;;;2275089;61;1109;-82
2021/12/31 00:39:06;121134.00;0.40;210.04;0.00;0.00;0.62;;;;;16.60;1.00;;;;;;2275189;61;1061;-84
2021/12/31 00:41:33;212993.00;0.71;368.29;0.00;0.00;0.62;;;;;16.30;1.00;;;;;;2275492;61;1369;-83
2021/12/31 00:44:01;191200.00;0.64;330.77;0.00;0.00;0.62;;;;;16.40;1.00;;;;;;2275395;61;1121;-82
2021/12/31 00:46:30;163315.00;0.54;282.75;0.00;0.00;0.62;;;;;16.40;1.00;;;;;;2275749;61;1058;-82
2021/12/31 00:48:57;122932.00;0.41;213.14;0.00;0.00;0.62;;;;;16.40;1.00;;;;;;2276016;61;1281;-83
2021/12/31 00:51:24;188064.00;0.63;325.38;0.00;0.00;0.62;;;;;16.40;1.00;;;;;;2275078;61;1428;-84
2021/12/31 00:53:51;119437.00;0.40;207.11;0.00;0.00;0.62;;;;;16.40;1.00;;;;;;2275242;61;1918;-85
2021/12/31 00:56:19;270647.00;0.90;467.46;0.00;0.00;0.62;;;;;16.40;1.00;;;;;;2276394;61;1667;-83
2021/12/31 00:58:45;143960.00;0.48;249.40;0.00;0.00;0.62;;;;;16.40;1.00;;;;;;2276459;61;1093;-85
2021/12/31 01:01:17;131167.00;0.44;227.34;0.00;0.00;0.62;;;;;16.40;1.00;;;;;;2276619;61;1376;-86
2021/12/31 01:03:46;151531.00;0.51;262.45;0.00;0.00;0.62;;;;;16.30;1.00;;;;;;2276658;61;1054;-89
2021/12/31 01:06:13;191259.00;0.64;330.88;0.00;0.00;0.62;;;;;16.10;1.00;;;;;;2275734;61;1067;-83
2021/12/31 01:08:40;273942.00;0.91;473.12;0.00;0.00;0.62;;;;;16.40;1.00;;;;;;2273292;61;1168;-83
2021/12/31 01:11:08;172728.00;0.58;298.97;0.00;0.00;0.62;;;;;16.30;1.00;;;;;;2273308;61;1328;-83
2021/12/31 01:13:47;149136.00;0.50;258.32;0.00;0.00;0.62;;;;;16.30;1.00;;;;;;2272807;61;1129;-83
2021/12/31 01:16:15;143492.00;0.48;248.59;0.00;0.00;0.62;;;;;16.40;1.00;;;;;;2273165;61;2027;-83
2021/12/31 01:21:28;243459.00;0.81;420.70;0.00;0.00;0.62;;;;;16.10;1.00;;;;;;2273765;61;1287;-83
2021/12/31 01:23:58;147577.00;0.49;255.63;0.00;0.00;0.62;;;;;15.90;1.00;;;;;;2274005;61;1187;-83
2021/12/31 01:26:25;137567.00;0.46;238.38;0.00;0.00;0.62;;;;;16.00;1.00;;;;;;2275858;61;1090;-86
2021/12/31 01:28:52;167088.00;0.56;289.25;0.00;0.00;0.62;;;;;16.20;1.00;;;;;;2276686;61;1040;-87
2021/12/31 01:31:21;210305.00;0.70;363.66;0.00;0.00;0.62;;;;;16.20;1.00;;;;;;2276704;61;1268;-89
2021/12/31 01:33:48;261444.00;0.87;451.63;0.00;0.00;0.62;;;;;16.40;1.00;;;;;;2276686;61;1165;-87
2021/12/31 01:36:15;191249.00;0.64;330.86;0.00;0.00;0.62;;;;;16.50;1.00;;;;;;2272186;61;1955;-84
2021/12/31 01:38:44;287861.00;0.96;497.05;0.00;0.00;0.62;;;;;16.60;1.00;;;;;;2271387;61;1151;-83
2021/12/31 01:41:12;224604.00;0.75;388.27;0.00;0.00;0.62;;;;;16.50;1.00;;;;;;2271772;61;1334;-83
2021/12/31 01:43:39;136017.00;0.45;235.70;0.00;0.00;0.62;;;;;16.20;1.00;;;;;;2272035;61;1140;-83
2021/12/31 01:46:11;312415.00;1.04;539.26;0.00;0.00;0.62;;;;;16.10;1.00;;;;;;2271917;61;1716;-83
2021/12/31 01:48:59;231569.00;0.77;400.25;0.00;0.00;0.62;;;;;16.10;1.00;;;;;;2272266;61;1206;-83
2021/12/31 01:51:26;193131.00;0.64;334.10;0.00;0.00;0.62;;;;;16.10;1.00;;;;;;2271784;61;1331;-82
2021/12/31 02:11:10;1547866.00;5.16;2733.52;126427.00;0.42;219.17;;;;;16.40;1.00;;;;;;2285408;61;1137;-87
2021/12/31 02:40:46;118322232.00;394.41;67102200.00;31724.00;0.11;55.57;;;;;15.70;1.00;;;;;;2437568;41;3578;31
2021/12/31 03:03:06;433140.00;1.44;746.79;91554.00;0.31;158.99;;;;;15.50;1.00;;;;;;2283045;61;1399;-83
2021/12/31 03:08:08;72602.00;0.24;126.26;7364.00;0.02;13.38;;;;;16.10;1.00;;;;;;2282869;61;1310;-85
2021/12/31 03:25:27;417602.00;1.39;720.07;43515.00;0.15;75.97;;;;;16.00;1.00;;;;;;2511319;40;4106;31
2021/12/31 03:35:28;217387.00;0.72;375.85;0.00;0.00;0.62;;;;;15.40;1.00;;;;;;2283402;61;1886;-86
2021/12/31 03:40:23;1398164.00;4.66;2452.92;78850.00;0.26;137.05;;;;;15.40;1.00;;;;;;2285610;61;1405;-86
2021/12/31 04:00:07;362042.00;1.21;624.56;0.00;0.00;0.62;;;;;14.40;1.00;;;;;;2512056;40;3454;31
2021/12/31 04:22:21;668469.00;2.23;1152.60;33704.00;0.11;58.99;;;;;14.70;1.00;;;;;;2285868;61;1397;-86
2021/12/31 04:29:50;1406171.00;4.69;2467.77;156595.00;0.52;271.17;;;;;15.40;1.00;;;;;;2512253;40;3622;31
2021/12/31 04:42:12;661152.00;2.20;1139.93;44688.00;0.15;78.00;;;;;14.20;1.00;;;;;;2286041;61;1416;-87
2021/12/31 04:49:37;455318.00;1.52;784.93;96226.00;0.32;167.06;;;;;13.90;1.00;;;;;;2286645;61;942;-86
2021/12/31 04:55:16;347008.00;1.16;598.72;11063.00;0.04;19.79;;;;;14.50;1.00;;;;;;2286602;61;1946;-84
2021/12/31 04:57:47;1179352.00;3.93;2052.93;79476.00;0.26;138.13;;;;;14.90;1.00;;;;;;2500798;55;3824;31
2021/12/31 06:19:15;241726.00;0.81;417.72;0.00;0.00;0.62;;;;;13.40;1.00;;;;;;2283198;61;947;-88
2021/12/31 06:29:06;245263.00;0.82;423.80;0.00;0.00;0.62;;;;;14.10;1.00;;;;;;2283013;61;955;-87
2021/12/31 07:55:31;301044.00;1.00;519.71;0.00;0.00;0.62;;;;;13.50;2.10;;;;;;2285089;61;1970;-87
2021/12/31 07:57:58;182516.00;0.61;315.82;0.00;0.00;0.62;;;;;14.00;2.10;;;;;;2283619;61;1124;-86
2021/12/31 08:00:24;199639.00;0.67;345.30;0.00;0.00;0.62;;;;;14.20;1.00;;;;;;2283459;61;1146;-85
2021/12/31 08:02:51;254827.00;0.85;440.25;0.00;0.00;0.62;;;;;14.00;1.00;;;;;;2283550;61;1326;-85
2021/12/31 08:05:18;253332.00;0.84;437.68;0.00;0.00;0.62;;;;;13.50;1.00;;;;;;2283893;61;1570;-85
2021/12/31 08:07:45;284149.00;0.95;490.67;0.00;0.00;0.62;;;;;13.20;1.00;;;;;;2283334;61;1033;-85
2021/12/31 08:10:12;218696.00;0.73;378.10;0.00;0.00;0.62;;;;;12.80;1.00;;;;;;2283630;61;1199;-85
2021/12/31 08:12:40;251807.00;0.84;435.06;0.00;0.00;0.62;;;;;12.20;1.00;;;;;;2285063;60;1261;-86
2021/12/31 08:15:08;219007.00;0.73;378.63;0.00;0.00;0.62;;;;;12.10;4.30;;;;;;2284988;60;2003;-87
2021/12/31 08:17:35;293636.00;0.98;506.98;0.00;0.00;0.62;;;;;12.90;3.40;;;;;;2277835;61;990;-86
2021/12/31 08:20:03;343884.00;1.15;593.35;0.00;0.00;0.62;;;;;12.80;1.00;;;;;;2283991;61;1159;-86
2021/12/31 08:22:30;205257.00;0.68;354.97;0.00;0.00;0.62;;;;;12.70;1.00;;;;;;2283932;61;1354;-85
2021/12/31 08:24:56;859215.00;2.86;1484.60;71700.00;0.24;124.70;;;;;12.40;1.00;;;;;;2283834;61;1105;-86
2021/12/31 08:27:23;546541.00;1.82;942.00;0.00;0.00;0.62;;;;;12.40;2.60;;;;;;2283563;61;1084;-86
2021/12/31 08:29:52;246414.00;0.82;425.78;0.00;0.00;0.62;;;;;12.60;3.00;;;;;;2283260;61;1100;-86
2021/12/31 08:32:19;292276.00;0.97;504.64;0.00;0.00;0.62;;;;;12.80;2.00;;;;;;2283666;61;1387;-86
2021/12/31 08:34:46;282639.00;0.94;488.07;0.00;0.00;0.62;;;;;13.00;1.00;;;;;;2284783;61;1121;-87
2021/12/31 08:37:13;346424.00;1.15;597.71;35158.00;0.12;61.51;;;;;12.90;1.00;;;;;;2283817;61;1995;-85
2021/12/31 08:39:40;320549.00;1.07;553.24;0.00;0.00;0.62;;;;;12.70;1.00;;;;;;2275181;61;1064;-84
2021/12/31 08:42:07;269390.00;0.90;465.30;0.00;0.00;0.62;;;;;12.40;1.00;;;;;;2283814;61;1380;-84
2021/12/31 08:44:34;274754.00;0.92;474.52;0.00;0.00;0.62;;;;;12.50;1.00;;;;;;2283869;61;1152;-85
2021/12/31 08:47:02;307430.00;1.02;530.69;0.00;0.00;0.62;;;;;12.50;1.00;;;;;;2284641;61;1147;-85
2021/12/31 08:49:29;360839.00;1.20;622.49;0.00;0.00;0.62;;;;;12.40;1.00;;;;;;2283786;61;1107;-85
2021/12/31 08:51:56;360824.00;1.20;622.47;38038.00;0.13;66.49;;;;;12.50;3.00;;;;;;2283449;61;1133;-85
2021/12/31 08:54:23;277562.00;0.93;479.35;0.00;0.00;0.62;;;;;12.80;1.00;;;;;;2283442;61;1472;-85
2021/12/31 08:56:50;492824.00;1.64;849.47;14463.00;0.05;25.68;;;;;12.20;1.00;;;;;;2276011;61;1931;-85
2021/12/31 08:59:19;117180584.00;390.60;65176860.00;0.00;0.00;0.62;;;;;12.50;5.50;;;;;;2282672;61;1177;-85
2021/12/31 09:01:46;237992.00;0.79;411.30;0.00;0.00;0.62;;;;;13.00;4.10;;;;;;2283874;61;1140;-86
2021/12/31 09:04:14;284037.00;0.95;490.48;0.00;0.00;0.62;;;;;13.50;2.90;;;;;;2283249;61;1368;-86
2021/12/31 09:06:41;267516.00;0.89;462.07;0.00;0.00;0.62;;;;;13.70;1.60;;;;;;2283222;61;1081;-86
2021/12/31 09:09:08;365408.00;1.22;630.34;0.00;0.00;0.62;;;;;14.00;1.80;;;;;;2282583;61;1498;-86
2021/12/31 09:11:35;310023.00;1.03;535.15;0.00;0.00;0.62;;;;;14.00;1.00;;;;;;2282976;61;1146;-86
2021/12/31 09:14:02;357353.00;1.19;616.50;0.00;0.00;0.62;;;;;13.70;1.00;;;;;;2283074;61;1313;-86
2021/12/31 09:16:29;301313.00;1.00;520.18;0.00;0.00;0.62;;;;;13.60;1.00;;;;;;2282951;61;1925;-86
2021/12/31 09:18:56;288215.00;0.96;497.66;0.00;0.00;0.62;;;;;14.00;1.80;;;;;;2283583;61;1165;-86
2021/12/31 09:21:24;261843.00;0.87;452.32;0.00;0.00;0.62;;;;;14.40;1.70;;;;;;2283492;61;1116;-86
2021/12/31 09:23:51;255208.00;0.85;440.91;0.00;0.00;0.62;;;;;14.60;1.00;;;;;;2282359;61;1277;-86
2021/12/31 09:26:18;204735.00;0.68;354.07;0.00;0.00;0.62;;;;;14.70;1.00;;;;;;2282526;61;1171;-86
2021/12/31 09:28:45;265574.00;0.89;458.73;0.00;0.00;0.62;;;;;14.60;1.00;;;;;;2283280;61;1128;-87
2021/12/31 09:31:13;254256.00;0.85;439.27;0.00;0.00;0.62;;;;;14.50;1.00;;;;;;2282916;61;1068;-86
2021/12/31 09:33:40;314503.00;1.05;542.85;0.00;0.00;0.62;;;;;14.20;1.00;;;;;;2283081;61;1375;-86
2021/12/31 09:36:07;224368.00;0.75;387.86;0.00;0.00;0.62;;;;;14.10;1.00;;;;;;2282486;61;1927;-86
2021/12/31 09:38:35;350124.00;1.17;604.07;26927.00;0.09;47.26;;;;;14.00;1.00;;;;;;2283368;61;1188;-86
2021/12/31 09:41:02;254299.00;0.85;439.34;0.00;0.00;0.62;;;;;14.30;2.50;;;;;;2274914;61;1180;-86
2021/12/31 09:43:29;209755.00;0.70;362.71;0.00;0.00;0.62;;;;;14.30;1.00;;;;;;2281650;61;1419;-86
2021/12/31 09:45:56;228124.00;0.76;394.32;0.00;0.00;0.62;;;;;14.30;1.10;;;;;;2282497;61;1101;-86
2021/12/31 09:48:25;165884.00;0.55;287.18;0.00;0.00;0.62;;;;;14.30;1.00;;;;;;2284626;61;1050;-87
2021/12/31 09:50:55;190457.00;0.63;329.50;0.00;0.00;0.62;;;;;14.50;1.00;;;;;;2282230;61;1143;-86
2021/12/31 09:53:23;306092.00;1.02;528.39;0.00;0.00;0.62;;;;;14.40;1.00;;;;;;2284535;60;1348;-85
2021/12/31 09:55:54;294392.00;0.98;508.28;0.00;0.00;0.62;;;;;13.90;1.70;;;;;;2284128;60;1935;-85
2021/12/31 09:58:24;240920.00;0.80;416.33;0.00;0.00;0.62;;;;;13.80;1.60;;;;;;2281884;61;1171;-85
2021/12/31 10:00:55;190763.00;0.64;330.02;0.00;0.00;0.62;;;;;13.50;1.90;;;;;;2281628;61;1139;-86
2021/12/31 10:03:25;262776.00;0.88;453.92;0.00;0.00;0.62;;;;;13.50;2.30;;;;;;2280233;61;1732;-86
2021/12/31 10:05:53;308273.00;1.03;532.14;0.00;0.00;0.62;;;;;13.80;2.20;;;;;;2278539;61;1183;-87
2021/12/31 10:08:22;323063.00;1.08;557.56;0.00;0.00;0.62;;;;;14.10;2.00;;;;;;2278466;61;1106;-86
2021/12/31 10:11:08;204763.00;0.68;354.12;0.00;0.00;0.62;;;;;14.30;2.00;;;;;;2278551;61;1144;-87
2021/12/31 10:13:37;190506.00;0.64;329.58;0.00;0.00;0.62;;;;;14.40;1.70;;;;;;2277978;61;1328;-86
2021/12/31 10:16:05;253092.00;0.84;437.27;0.00;0.00;0.62;;;;;14.30;1.40;;;;;;2279799;61;2001;-88
2021/12/31 10:18:33;267551.00;0.89;462.13;0.00;0.00;0.62;;;;;14.30;2.00;;;;;;2278268;61;1223;-88
2021/12/31 10:21:01;292811.00;0.98;505.56;0.00;0.00;0.62;;;;;14.40;1.90;;;;;;2278183;61;1146;-87
2021/12/31 10:23:28;157630.00;0.53;272.96;0.00;0.00;0.62;;;;;14.40;2.10;;;;;;2277762;61;1277;-88
2021/12/31 10:26:13;251665.00;0.84;434.81;0.00;0.00;0.62;;;;;14.80;2.30;;;;;;2277518;61;1185;-88
2021/12/31 10:28:53;210108.00;0.70;363.32;0.00;0.00;0.62;;;;;15.10;1.50;;;;;;2277478;61;1150;-88
2021/12/31 10:31:20;289477.00;0.96;499.83;0.00;0.00;0.62;;;;;15.10;1.10;;;;;;2277881;61;1113;-88
2021/12/31 10:33:49;156770.00;0.52;271.47;0.00;0.00;0.62;;;;;15.10;1.10;;;;;;2277470;61;1388;-88
2021/12/31 10:36:33;113871.00;0.38;197.51;0.00;0.00;0.62;;;;;15.40;1.00;;;;;;2278791;61;2014;-88
2021/12/31 10:39:03;145808.00;0.49;252.58;0.00;0.00;0.62;;;;;15.30;1.00;;;;;;2280035;61;1243;-87
2021/12/31 10:41:31;148663.00;0.50;257.50;0.00;0.00;0.62;;;;;15.30;1.00;;;;;;2278803;61;1119;-87
2021/12/31 10:43:59;244176.00;0.81;421.93;0.00;0.00;0.62;;;;;15.50;1.00;;;;;;2278612;61;2053;-87
2021/12/31 10:46:27;246777.00;0.82;426.41;0.00;0.00;0.62;;;;;15.20;1.00;;;;;;2280869;61;1816;-88
2021/12/31 10:48:56;327495.00;1.09;565.18;44473.00;0.15;77.63;;;;;14.90;2.40;;;;;;2284943;60;1107;-87
2021/12/31 10:51:38;187832.00;0.63;324.98;0.00;0.00;0.62;;;;;14.90;2.40;;;;;;2285074;60;1167;-85
2021/12/31 10:54:37;209148.00;0.70;361.67;0.00;0.00;0.62;;;;;15.00;2.60;;;;;;2285174;60;1422;-88
2021/12/31 10:57:05;223486.00;0.74;386.34;0.00;0.00;0.62;;;;;15.20;2.70;;;;;;2279354;61;2008;-88
2021/12/31 10:59:37;121861.00;0.41;211.29;0.00;0.00;0.62;;;;;15.60;1.70;;;;;;2278883;61;1155;-88
2021/12/31 11:02:05;199536.00;0.67;345.13;0.00;0.00;0.62;;;;;15.90;1.00;;;;;;2281257;61;1152;-88
2021/12/31 11:04:34;127895.00;0.43;221.70;0.00;0.00;0.62;;;;;16.10;1.00;;;;;;2280064;61;1149;-86
2021/12/31 11:07:02;155939.00;0.52;270.04;0.00;0.00;0.62;;;;;16.60;1.00;;;;;;2283386;61;1182;-87
2021/12/31 11:09:35;196149.00;0.65;339.29;0.00;0.00;0.62;;;;;17.00;1.00;;;;;;2280194;61;1344;-87
2021/12/31 11:12:02;122851.00;0.41;213.00;0.00;0.00;0.62;;;;;16.80;1.00;;;;;;2278840;61;1156;-87
2021/12/31 11:14:31;173668.00;0.58;300.58;0.00;0.00;0.62;;;;;16.40;1.00;;;;;;2278816;61;1434;-87
2021/12/31 11:16:59;162233.00;0.54;280.89;0.00;0.00;0.62;;;;;15.70;1.00;;;;;;2278455;61;2002;-87
2021/12/31 11:19:27;180496.00;0.60;312.34;0.00;0.00;0.62;;;;;15.40;1.50;;;;;;2278558;61;1054;-88
2021/12/31 11:21:54;172645.00;0.58;298.82;0.00;0.00;0.62;;;;;15.20;2.60;;;;;;2279284;61;1124;-87
2021/12/31 11:24:28;229907.00;0.77;397.39;0.00;0.00;0.62;;;;;15.30;2.70;;;;;;2279224;61;1362;-88
2021/12/31 11:26:55;189218.00;0.63;327.36;0.00;0.00;0.62;;;;;15.10;2.60;;;;;;2279712;61;1239;-88
2021/12/31 11:29:22;208837.00;0.70;361.13;0.00;0.00;0.62;;;;;15.30;2.50;;;;;;2279072;61;1871;-87
2021/12/31 11:31:50;214616.00;0.72;371.08;0.00;0.00;0.62;;;;;15.20;2.40;;;;;;2279071;61;1832;-88
2021/12/31 11:34:17;226612.00;0.76;391.72;0.00;0.00;0.62;;;;;15.20;2.60;;;;;;2278352;61;1264;-88
2021/12/31 11:36:51;214803.00;0.72;371.40;0.00;0.00;0.62;;;;;15.30;2.70;;;;;;2277718;61;2025;-88
2021/12/31 11:39:23;213105.00;0.71;368.48;0.00;0.00;0.62;;;;;15.50;2.30;;;;;;2277842;61;1166;-88
2021/12/31 11:41:51;232573.00;0.78;401.98;0.00;0.00;0.62;;;;;15.70;1.60;;;;;;2277785;61;1177;-88
2021/12/31 11:44:19;293782.00;0.98;507.23;0.00;0.00;0.62;;;;;15.80;1.80;;;;;;2277847;61;1385;-88
2021/12/31 11:46:47;164095.00;0.55;284.09;0.00;0.00;0.62;;;;;15.80;1.50;;;;;;2278393;61;1130;-88
2021/12/31 11:49:26;175226.00;0.58;303.27;0.00;0.00;0.62;;;;;15.90;1.00;;;;;;2278332;61;1103;-88
2021/12/31 11:52:01;178914.00;0.60;309.62;0.00;0.00;0.62;;;;;16.20;1.20;;;;;;2278481;61;1094;-86
2021/12/31 11:54:29;209816.00;0.70;362.82;0.00;0.00;0.62;;;;;16.20;1.20;;;;;;2279524;61;1352;-86
2021/12/31 11:57:10;207660.00;0.69;359.11;0.00;0.00;0.62;;;;;16.40;1.00;;;;;;2279496;61;2019;-86
2021/12/31 11:59:50;200064.00;0.67;346.03;0.00;0.00;0.62;;;;;16.40;1.00;;;;;;2279546;61;1136;-87
2021/12/31 12:02:40;165271.00;0.55;286.12;0.00;0.00;0.62;;;;;16.70;1.00;;;;;;2279772;61;1335;-87
2021/12/31 12:05:17;142762.00;0.48;247.33;0.00;0.00;0.62;;;;;16.70;1.00;;;;;;2279455;61;1105;-86
2021/12/31 12:07:47;127157296.00;423.86;83300840.00;0.00;0.00;0.62;;;;;16.80;1.00;;;;;;2280343;61;1191;-86
2021/12/31 12:10:29;95947.00;0.32;166.58;0.00;0.00;0.62;;;;;16.90;1.00;;;;;;2274263;61;1263;-87
2021/12/31 12:13:12;315313.00;1.05;544.24;0.00;0.00;0.62;;;;;17.00;1.00;;;;;;2281237;61;1727;-86
2021/12/31 12:15:41;144117.00;0.48;249.67;0.00;0.00;0.62;;;;;17.10;1.00;;;;;;2278208;61;1459;-88
2021/12/31 12:18:09;89892.00;0.30;156.12;0.00;0.00;0.62;;;;;17.10;1.00;;;;;;2281257;61;2014;-88
2021/12/31 12:20:42;116652.00;0.39;202.31;0.00;0.00;0.62;;;;;17.10;1.00;;;;;;2283089;60;1203;-88
2021/12/31 12:23:27;87939.00;0.29;152.75;0.00;0.00;0.62;;;;;17.00;1.00;;;;;;2284773;61;1233;-87
2021/12/31 12:25:54;1011634.00;3.37;1753.09;0.00;0.00;0.62;;;;;17.40;1.00;;;;;;2282951;60;1097;-87
2021/12/31 12:28:22;169956.00;0.57;294.19;0.00;0.00;0.62;;;;;17.70;1.00;;;;;;2284921;60;1167;-88
2021/12/31 12:31:04;163391.00;0.54;282.88;0.00;0.00;0.62;;;;;17.80;1.00;;;;;;2282336;60;1039;-87
2021/12/31 12:33:31;176066.00;0.59;304.71;0.00;0.00;0.62;;;;;18.00;1.00;;;;;;2280470;61;1733;-86
2021/12/31 12:36:01;166336.00;0.55;287.96;0.00;0.00;0.62;;;;;17.80;1.00;;;;;;2280822;61;1057;-86
2021/12/31 12:38:33;199912.00;0.67;345.77;0.00;0.00;0.62;;;;;17.60;1.00;;;;;;2282556;61;1961;-86
2021/12/31 12:41:02;110704.00;0.37;192.04;0.00;0.00;0.62;;;;;17.80;1.00;;;;;;2274617;61;1240;-86
2021/12/31 12:43:32;213543.00;0.71;369.23;0.00;0.00;0.62;;;;;17.60;1.00;;;;;;2281039;61;1289;-86
2021/12/31 12:46:02;110872.00;0.37;192.33;0.00;0.00;0.62;;;;;17.60;1.00;;;;;;2280650;61;1104;-86
2021/12/31 12:48:34;108399.00;0.36;188.07;0.00;0.00;0.62;;;;;17.70;1.00;;;;;;2280829;61;1061;-86
2021/12/31 12:51:05;204779.00;0.68;354.15;48458.00;0.16;84.52;;;;;17.50;1.00;;;;;;2281880;61;1113;-86
2021/12/31 12:53:34;286767.00;0.96;495.17;0.00;0.00;0.62;;;;;17.60;1.00;;;;;;2281333;61;1382;-87
2021/12/31 12:56:07;120580.00;0.40;209.08;0.00;0.00;0.62;;;;;17.60;1.00;;;;;;2281585;61;1104;-86
2021/12/31 12:58:36;225106.00;0.75;389.13;0.00;0.00;0.62;;;;;17.60;1.00;;;;;;2280525;61;2036;-87
2021/12/31 13:01:06;172962.00;0.58;299.37;0.00;0.00;0.62;;;;;17.70;1.00;;;;;;2279894;61;1377;-87
2021/12/31 13:03:46;163252.00;0.54;282.64;0.00;0.00;0.62;;;;;17.70;1.00;;;;;;2280347;61;1386;-87
2021/12/31 13:06:14;118209.00;0.39;204.99;0.00;0.00;0.62;;;;;17.90;1.00;;;;;;2280420;61;1196;-87
2021/12/31 13:08:41;136819.00;0.46;237.09;0.00;0.00;0.62;;;;;17.90;1.00;;;;;;2280882;61;1220;-87
2021/12/31 13:11:09;138130.00;0.46;239.35;0.00;0.00;0.62;;;;;18.20;1.00;;;;;;2282229;61;1173;-87
2021/12/31 13:13:37;220433.00;0.73;381.09;0.00;0.00;0.62;;;;;18.20;1.00;;;;;;2284295;61;1363;-86
2021/12/31 13:16:06;104953.00;0.35;182.12;0.00;0.00;0.62;;;;;18.20;1.00;;;;;;2284834;60;1033;-88
2021/12/31 13:18:36;479980.00;1.60;827.36;68587.00;0.23;119.32;;;;;18.30;1.00;;;;;;2283279;61;2014;-87
2021/12/31 13:21:06;143929.00;0.48;249.34;0.00;0.00;0.62;;;;;18.30;1.00;;;;;;2282470;61;1259;-87
2021/12/31 13:23:36;515241.00;1.72;888.07;0.00;0.00;0.62;;;;;18.40;1.00;;;;;;2282203;61;1417;-87
2021/12/31 13:26:17;377589.00;1.26;651.28;0.00;0.00;0.62;;;;;18.50;1.00;;;;;;2281742;61;1130;-87
2021/12/31 13:28:45;184628.00;0.62;319.46;0.00;0.00;0.62;;;;;18.50;1.00;;;;;;2282328;61;1152;-87
2021/12/31 13:31:12;121683.00;0.41;210.99;0.00;0.00;0.62;;;;;18.70;1.00;;;;;;2281475;61;1206;-88
2021/12/31 13:33:42;61497.00;0.20;107.06;0.00;0.00;0.62;;;;;18.90;1.00;;;;;;2281478;61;1380;-87
2021/12/31 13:36:22;198288.00;0.66;342.98;0.00;0.00;0.62;;;;;18.90;1.00;;;;;;2282499;61;1076;-87
2021/12/31 13:39:13;169444.00;0.56;293.31;0.00;0.00;0.62;;;;;19.00;1.00;;;;;;2281102;61;1931;-87
2021/12/31 13:41:52;193199.00;0.64;334.22;0.00;0.00;0.62;;;;;19.10;1.00;;;;;;2281948;61;1734;-87
2021/12/31 13:44:22;182482.00;0.61;315.76;0.00;0.00;0.62;;;;;19.00;1.00;;;;;;2281381;61;1517;-87
2021/12/31 13:46:59;105935.00;0.35;183.82;0.00;0.00;0.62;;;;;18.90;1.00;;;;;;2280242;61;1156;-87
2021/12/31 13:49:26;64321.00;0.21;111.95;0.00;0.00;0.62;;;;;18.70;1.00;;;;;;2280069;61;1123;-87
2021/12/31 13:51:54;43696.00;0.15;76.28;0.00;0.00;0.62;;;;;18.70;1.00;;;;;;2279686;61;1082;-88
2021/12/31 13:54:39;131965.00;0.44;228.72;0.00;0.00;0.62;;;;;18.60;1.00;;;;;;2280780;61;1359;-87
2021/12/31 13:59:38;324640.00;1.08;560.27;0.00;0.00;0.62;;;;;18.50;1.00;;;;;;2286410;60;1396;-88
2021/12/31 14:02:07;0.00;0.00;0.62;0.00;0.00;0.62;;;;;18.40;1.00;;;;;;2272098;61;963;-88
2021/12/31 14:04:36;426798.00;1.42;735.88;0.00;0.00;0.62;;;;;18.40;1.00;;;;;;2268034;61;1009;-88
2021/12/31 14:07:17;255685.00;0.85;441.73;0.00;0.00;0.62;;;;;18.30;1.00;;;;;;2267610;61;1411;-89
2021/12/31 14:09:47;803532.00;2.68;1387.28;85630.00;0.29;148.76;;;;;18.30;1.00;;;;;;2268417;61;1020;-89
2021/12/31 14:12:14;1105200.00;3.68;1919.73;200751.00;0.67;347.22;;;;;18.10;1.00;;;;;;2268940;61;1060;-89
2021/12/31 14:14:42;1062684.00;3.54;1843.82;228437.00;0.76;394.86;;;;;18.20;1.00;;;;;;2268851;61;1043;-88
2021/12/31 14:17:10;787170.00;2.62;1358.76;132668.00;0.44;229.93;;;;;18.10;1.00;;;;;;2268784;61;1911;-90
2021/12/31 14:19:39;706196.00;2.35;1217.98;133290.00;0.44;231.00;;;;;18.20;1.00;;;;;;2265438;61;1002;-89
2021/12/31 14:22:06;733080.00;2.44;1264.65;99811.00;0.33;173.25;;;;;18.10;1.00;;;;;;2269971;61;1015;-89
2021/12/31 14:24:34;971666.00;3.24;1682.35;85585.00;0.29;148.68;;;;;18.10;1.00;;;;;;2276092;60;1005;-89
2021/12/31 14:27:03;785111.00;2.62;1355.17;89144.00;0.30;154.83;;;;;18.10;1.00;;;;;;2285506;60;1340;-88
2021/12/31 14:29:37;673866.00;2.25;1161.95;132383.00;0.44;229.44;;;;;18.00;1.00;;;;;;2285488;60;1087;-87
2021/12/31 14:32:05;521218.00;1.74;898.36;0.00;0.00;0.62;;;;;17.90;1.00;;;;;;2280972;60;1013;-89
2021/12/31 14:34:33;630948.00;2.10;1087.69;43739.00;0.15;76.36;;;;;18.10;1.00;;;;;;2270951;60;973;-89
2021/12/31 14:37:05;660957.00;2.20;1139.60;89997.00;0.30;156.30;;;;;18.10;1.00;;;;;;2272730;61;1996;-88
2021/12/31 14:39:35;763652.00;2.55;1317.80;4950.00;0.02;9.20;;;;;17.60;1.00;;;;;;2272884;61;1189;-88
2021/12/31 14:42:04;912940.00;3.04;1578.86;43334.00;0.14;75.66;;;;;17.50;1.00;;;;;;2272907;61;982;-89
2021/12/31 14:44:31;834062.00;2.78;1440.59;32471.00;0.11;56.86;;;;;17.60;1.00;;;;;;2272869;61;1084;-88
2021/12/31 14:46:58;561473.00;1.87;967.74;55066.00;0.18;95.95;;;;;17.70;1.00;;;;;;2264670;61;1322;-89
2021/12/31 14:49:27;821010.00;2.74;1417.79;34467.00;0.11;60.31;;;;;17.80;1.00;;;;;;2258882;61;976;-88
2021/12/31 14:51:55;613204.00;2.04;1057.02;44169.00;0.15;77.10;;;;;18.10;1.00;;;;;;2268855;61;1029;-88
2021/12/31 14:54:22;539015.00;1.80;929.03;29909.00;0.10;52.43;;;;;18.10;1.00;;;;;;2270290;61;1033;-89
2021/12/31 14:56:50;661399.00;2.20;1140.36;61748.00;0.21;107.50;;;;;18.00;1.00;;;;;;2280879;61;1336;-88
2021/12/31 14:59:18;697157.00;2.32;1202.31;32631.00;0.11;57.14;;;;;17.90;1.00;;;;;;2280884;61;1031;-88
2021/12/31 15:01:46;837911.00;2.79;1447.32;55520.00;0.19;96.73;;;;;17.80;1.00;;;;;;2280620;61;966;-90
2021/12/31 15:04:13;646368.00;2.15;1114.35;29474.00;0.10;51.67;;;;;17.90;1.00;;;;;;2281551;60;1064;-89
2021/12/31 15:06:48;603801.00;2.01;1040.78;15054.00;0.05;26.70;;;;;17.80;1.00;;;;;;2279751;60;1374;-87
2021/12/31 15:09:16;668051.00;2.23;1151.88;46535.00;0.16;81.19;;;;;17.60;1.00;;;;;;2274116;60;973;-89
2021/12/31 15:11:44;476688.00;1.59;821.70;17293.00;0.06;30.58;;;;;17.60;1.00;;;;;;2272592;61;977;-89
2021/12/31 15:14:11;733025.00;2.44;1264.56;4061.00;0.01;7.66;;;;;17.20;1.00;;;;;;2272746;61;1045;-89
2021/12/31 15:16:39;649412.00;2.16;1119.62;0.00;0.00;0.62;;;;;17.20;1.00;;;;;;2272733;61;1293;-89
2021/12/31 15:19:07;716452.00;2.39;1235.78;61049.00;0.20;106.29;;;;;17.30;1.00;;;;;;2272692;61;1944;-89
2021/12/31 15:21:36;450760.00;1.50;777.09;59368.00;0.20;103.38;;;;;17.10;1.00;;;;;;2272608;61;1030;-90
2021/12/31 15:24:04;622411.00;2.07;1072.93;0.00;0.00;0.62;;;;;16.90;1.00;;;;;;2273558;61;1722;-91
2021/12/31 15:26:31;483157.00;1.61;832.83;7081.00;0.02;12.89;;;;;16.50;1.00;;;;;;2276729;61;1407;-89
2021/12/31 15:29:00;667929.00;2.23;1151.67;41882.00;0.14;73.14;;;;;16.50;1.00;;;;;;2277706;60;1601;-90